Wetterdaten: Woche 01.07.19 - 07.07.19 (KW27)
Datum Zeit Temp. Aussen Temp. o. S. +5cm Feuchte Auss Luftdruck Regen Sonnenschein Regendauer Solar Windben Empfang
01.07.2019 00:00 20,4 C 18,5 C 18,0 C 66 % 1016,1 hPa 0,0 l/m 0,00 h 0,00 h 0 W/m 0,9 km/h (0 Bft) 94,33 %
01.07.2019 01:00 19,7 C 18,0 C 18,0 C 70 % 1016,4 hPa 0,0 l/m 0,00 h 0,00 h 0 W/m 1,4 km/h (1 Bft) 96,94 %
01.07.2019 02:00 19,0 C 17,3 C 17,2 C 73 % 1016,1 hPa 0,0 l/m 0,00 h 0,00 h 0 W/m 1,6 km/h (1 Bft) 97,79 %
01.07.2019 03:00 18,2 C 16,4 C 16,4 C 76 % 1016,2 hPa 0,0 l/m 0,00 h 0,00 h 0 W/m 2,2 km/h (1 Bft) 98,86 %
01.07.2019 04:00 17,5 C 16,1 C 16,2 C 78 % 1016,3 hPa 0,0 l/m 0,00 h 0,00 h 0 W/m 2,1 km/h (1 Bft) 96,96 %
01.07.2019 05:00 17,5 C 16,6 C 16,7 C 82 % 1016,4 hPa 0,0 l/m 0,00 h 0,00 h 8 W/m 7,5 km/h (2 Bft) 96,66 %
01.07.2019 06:00 17,4 C 16,5 C 16,6 C 83 % 1016,8 hPa 0,0 l/m 0,00 h 0,00 h 28 W/m 6,9 km/h (2 Bft) 97,83 %
01.07.2019 07:00 17,6 C 17,6 C 17,3 C 85 % 1016,9 hPa 0,0 l/m 0,00 h 0,00 h 71 W/m 8,0 km/h (2 Bft) 98,57 %
01.07.2019 08:00 18,5 C 20,0 C 19,0 C 83 % 1017,5 hPa 0,0 l/m 0,00 h 0,00 h 116 W/m 9,8 km/h (2 Bft) 96,37 %
01.07.2019 09:00 20,4 C 24,9 C 24,9 C 76 % 1017,6 hPa 0,0 l/m 0,87 h 0,00 h 482 W/m 13,8 km/h (3 Bft) 99,08 %
01.07.2019 10:00 22,5 C 27,9 C 28,1 C 67 % 1017,7 hPa 0,0 l/m 0,97 h 0,00 h 692 W/m 12,7 km/h (3 Bft) 95,87 %
01.07.2019 11:00 23,8 C 27,9 C 28,5 C 62 % 1017,7 hPa 0,0 l/m 0,80 h 0,00 h 649 W/m 12,9 km/h (3 Bft) 97,41 %
01.07.2019 12:00 24,5 C 28,4 C 29,3 C 59 % 1017,5 hPa 0,0 l/m 0,63 h 0,00 h 728 W/m 13,9 km/h (3 Bft) 99,45 %
01.07.2019 13:00 25,3 C 27,5 C 28,7 C 55 % 1017,7 hPa 0,0 l/m 0,53 h 0,00 h 575 W/m 14,9 km/h (3 Bft) 97,29 %
01.07.2019 14:00 25,8 C 28,3 C 29,5 C 54 % 1017,7 hPa 0,0 l/m 0,77 h 0,00 h 751 W/m 15,3 km/h (3 Bft) 96,36 %
01.07.2019 15:00 27,1 C 29,2 C 27,6 C 50 % 1017,7 hPa 0,0 l/m 0,90 h 0,00 h 866 W/m 14,3 km/h (3 Bft) 97,84 %
01.07.2019 16:00 27,3 C 27,1 C 26,8 C 49 % 1017,8 hPa 0,0 l/m 0,70 h 0,00 h 643 W/m 15,2 km/h (3 Bft) 98,15 %
01.07.2019 17:00 26,6 C 26,0 C 25,8 C 48 % 1017,7 hPa 0,0 l/m 1,00 h 0,00 h 573 W/m 15,8 km/h (3 Bft) 97,44 %
01.07.2019 18:00 25,8 C 24,7 C 24,6 C 49 % 1017,7 hPa 0,0 l/m 0,97 h 0,00 h 431 W/m 15,3 km/h (3 Bft) 96,39 %
01.07.2019 19:00 24,4 C 23,1 C 22,4 C 54 % 1018,1 hPa 0,0 l/m 0,63 h 0,00 h 213 W/m 14,2 km/h (3 Bft) 98,72 %
01.07.2019 20:00 21,9 C 20,2 C 20,2 C 59 % 1018,8 hPa 0,0 l/m 0,00 h 0,00 h 38 W/m 15,0 km/h (3 Bft) 97,29 %
01.07.2019 21:00 19,9 C 18,2 C 18,3 C 61 % 1019,3 hPa 0,0 l/m 0,00 h 0,00 h 12 W/m 10,8 km/h (2 Bft) 96,23 %
01.07.2019 22:00 18,5 C 16,5 C 16,6 C 67 % 1020,4 hPa 0,0 l/m 0,00 h 0,00 h 0 W/m 6,0 km/h (2 Bft) 98,15 %
01.07.2019 23:00 17,3 C 15,1 C 15,2 C 71 % 1021,1 hPa 0,0 l/m 0,00 h 0,00 h 0 W/m 3,4 km/h (1 Bft) 97,79 %
02.07.2019 00:00 16,0 C 13,6 C 13,6 C 75 % 1021,3 hPa 0,0 l/m 0,00 h 0,00 h 0 W/m 1,5 km/h (1 Bft) 97,93 %
02.07.2019 01:00 14,8 C 12,7 C 12,7 C 78 % 1021,4 hPa 0,0 l/m 0,00 h 0,00 h 0 W/m 1,3 km/h (1 Bft) 95,94 %
02.07.2019 02:00 13,9 C 12,1 C 12,0 C 82 % 1021,4 hPa 0,0 l/m 0,00 h 0,00 h 0 W/m 0,0 km/h (0 Bft) 98,01 %
02.07.2019 03:00 13,2 C 11,7 C 11,5 C 83 % 1021,5 hPa 0,0 l/m 0,00 h 0,00 h 0 W/m 0,4 km/h (0 Bft) 96,73 %
02.07.2019 04:00 12,7 C 11,4 C 11,0 C 86 % 1021,5 hPa 0,0 l/m 0,00 h 0,00 h 0 W/m 0,6 km/h (0 Bft) 99,29 %
02.07.2019 05:00 12,3 C 11,0 C 10,6 C 87 % 1021,8 hPa 0,0 l/m 0,00 h 0,00 h 8 W/m 0,1 km/h (0 Bft) 97,54 %
02.07.2019 06:00 12,3 C 12,0 C 11,6 C 89 % 1022,0 hPa 0,0 l/m 0,00 h 0,00 h 20 W/m 1,5 km/h (1 Bft) 95,73 %
02.07.2019 07:00 13,3 C 13,9 C 13,4 C 91 % 1022,4 hPa 0,0 l/m 0,00 h 0,00 h 38 W/m 4,8 km/h (1 Bft) 97,58 %
02.07.2019 08:00 16,4 C 22,8 C 19,4 C 88 % 1022,8 hPa 0,0 l/m 0,00 h 0,00 h 112 W/m 8,4 km/h (2 Bft) 98,58 %
02.07.2019 09:00 19,7 C 22,6 C 23,1 C 74 % 1023,1 hPa 0,0 l/m 0,43 h 0,00 h 301 W/m 8,2 km/h (2 Bft) 97,29 %
02.07.2019 10:00 20,3 C 25,3 C 26,2 C 69 % 1023,0 hPa 0,0 l/m 0,63 h 0,00 h 528 W/m 8,7 km/h (2 Bft) 98,86 %
02.07.2019 11:00 22,6 C 27,8 C 28,7 C 60 % 1023,0 hPa 0,0 l/m 0,50 h 0,00 h 556 W/m 7,9 km/h (2 Bft) 95,73 %
02.07.2019 12:00 23,4 C 30,3 C 31,7 C 56 % 1023,0 hPa 0,0 l/m 0,90 h 0,00 h 905 W/m 10,0 km/h (2 Bft) 97,27 %
02.07.2019 13:00 25,0 C 30,0 C 32,3 C 52 % 1023,0 hPa 0,0 l/m 0,83 h 0,00 h 848 W/m 8,4 km/h (2 Bft) 98,08 %
02.07.2019 14:00 25,0 C 28,2 C 29,6 C 50 % 1022,7 hPa 0,0 l/m 0,57 h 0,00 h 678 W/m 9,0 km/h (2 Bft) 98,01 %
02.07.2019 15:00 26,0 C 28,8 C 26,2 C 46 % 1022,6 hPa 0,0 l/m 0,83 h 0,00 h 840 W/m 11,2 km/h (2 Bft) 96,30 %
02.07.2019 16:00 26,9 C 26,7 C 26,5 C 43 % 1022,5 hPa 0,0 l/m 0,77 h 0,00 h 690 W/m 9,6 km/h (2 Bft) 96,51 %
02.07.2019 17:00 26,2 C 25,5 C 25,2 C 43 % 1022,2 hPa 0,0 l/m 0,97 h 0,00 h 628 W/m 9,4 km/h (2 Bft) 98,86 %
02.07.2019 18:00 25,6 C 24,7 C 23,9 C 43 % 1021,9 hPa 0,0 l/m 0,90 h 0,00 h 414 W/m 9,9 km/h (2 Bft) 96,68 %
02.07.2019 19:00 24,0 C 22,7 C 21,7 C 46 % 1021,8 hPa 0,0 l/m 0,63 h 0,00 h 219 W/m 9,0 km/h (2 Bft) 96,43 %
02.07.2019 20:00 22,0 C 20,3 C 19,9 C 50 % 1021,7 hPa 0,0 l/m 0,00 h 0,00 h 39 W/m 8,9 km/h (2 Bft) 98,93 %
02.07.2019 21:00 20,2 C 18,2 C 17,9 C 53 % 1021,8 hPa 0,0 l/m 0,00 h 0,00 h 12 W/m 5,2 km/h (1 Bft) 96,51 %
02.07.2019 22:00 18,7 C 16,9 C 16,7 C 58 % 1022,4 hPa 0,0 l/m 0,00 h 0,00 h 0 W/m 5,9 km/h (2 Bft) 97,51 %
02.07.2019 23:00 17,5 C 15,8 C 15,8 C 63 % 1022,9 hPa 0,0 l/m 0,00 h 0,00 h 0 W/m 5,6 km/h (1 Bft) 97,08 %
03.07.2019 00:00 16,6 C 14,8 C 14,7 C 66 % 1023,1 hPa 0,0 l/m 0,00 h 0,00 h 0 W/m 4,6 km/h (1 Bft) 97,81 %
03.07.2019 01:00 15,7 C 14,3 C 14,1 C 70 % 1023,4 hPa 0,0 l/m 0,00 h 0,00 h 0 W/m 4,7 km/h (1 Bft) 98,29 %
03.07.2019 02:00 15,3 C 13,9 C 13,9 C 73 % 1023,5 hPa 0,0 l/m 0,00 h 0,00 h 0 W/m 5,5 km/h (1 Bft) 97,01 %
03.07.2019 03:00 14,5 C 12,4 C 12,4 C 76 % 1023,6 hPa 0,0 l/m 0,00 h 0,00 h 0 W/m 1,4 km/h (1 Bft) 96,65 %
03.07.2019 04:00 13,7 C 12,5 C 12,2 C 81 % 1023,5 hPa 0,0 l/m 0,00 h 0,00 h 0 W/m 2,7 km/h (1 Bft) 97,47 %
03.07.2019 05:00 13,4 C 12,2 C 12,1 C 84 % 1023,7 hPa 0,0 l/m 0,00 h 0,00 h 9 W/m 1,6 km/h (1 Bft) 99,29 %
03.07.2019 06:00 13,1 C 12,5 C 12,1 C 86 % 1023,9 hPa 0,0 l/m 0,00 h 0,00 h 33 W/m 2,8 km/h (1 Bft) 95,20 %
03.07.2019 07:00 13,6 C 14,2 C 13,6 C 87 % 1024,2 hPa 0,0 l/m 0,00 h 0,00 h 59 W/m 4,5 km/h (1 Bft) 97,36 %
03.07.2019 08:00 15,8 C 19,3 C 18,8 C 82 % 1024,4 hPa 0,0 l/m 0,00 h 0,00 h 124 W/m 6,0 km/h (2 Bft) 99,50 %
03.07.2019 09:00 19,0 C 24,7 C 26,2 C 69 % 1024,7 hPa 0,0 l/m 0,73 h 0,00 h 438 W/m 7,4 km/h (2 Bft) 95,66 %
03.07.2019 10:00 20,3 C 23,2 C 23,8 C 61 % 1024,9 hPa 0,0 l/m 0,40 h 0,00 h 387 W/m 8,2 km/h (2 Bft) 96,37 %
03.07.2019 11:00 20,4 C 23,9 C 24,3 C 60 % 1025,0 hPa 0,0 l/m 0,37 h 0,00 h 440 W/m 8,4 km/h (2 Bft) 98,22 %
03.07.2019 12:00 22,4 C 28,0 C 28,8 C 54 % 1025,0 hPa 0,0 l/m 0,63 h 0,00 h 784 W/m 10,3 km/h (2 Bft) 98,82 %
03.07.2019 13:00 24,0 C 27,9 C 29,4 C 50 % 1025,0 hPa 0,0 l/m 0,67 h 0,00 h 799 W/m 11,0 km/h (2 Bft) 97,22 %
03.07.2019 14:00 24,1 C 27,0 C 28,3 C 48 % 1024,9 hPa 0,0 l/m 0,60 h 0,00 h 656 W/m 11,3 km/h (2 Bft) 96,16 %
03.07.2019 15:00 23,9 C 26,7 C 24,8 C 47 % 1024,5 hPa 0,0 l/m 0,73 h 0,00 h 632 W/m 10,0 km/h (2 Bft) 99,36 %
03.07.2019 16:00 25,2 C 25,6 C 26,2 C 44 % 1024,3 hPa 0,0 l/m 1,00 h 0,00 h 819 W/m 10,4 km/h (2 Bft) 96,44 %
03.07.2019 17:00 25,2 C 24,3 C 24,7 C 43 % 1024,2 hPa 0,0 l/m 0,90 h 0,00 h 578 W/m 11,4 km/h (2 Bft) 96,87 %
03.07.2019 18:00 24,0 C 23,0 C 23,4 C 45 % 1024,2 hPa 0,0 l/m 1,00 h 0,00 h 465 W/m 12,1 km/h (2 Bft) 99,56 %
03.07.2019 19:00 21,9 C 20,4 C 19,1 C 50 % 1024,1 hPa 0,0 l/m 0,73 h 0,00 h 233 W/m 9,1 km/h (2 Bft) 96,51 %
03.07.2019 20:00 19,3 C 18,1 C 17,3 C 55 % 1024,0 hPa 0,0 l/m 0,00 h 0,00 h 34 W/m 9,8 km/h (2 Bft) 97,22 %
03.07.2019 21:00 18,2 C 16,6 C 16,3 C 57 % 1024,3 hPa 0,0 l/m 0,00 h 0,00 h 12 W/m 6,4 km/h (2 Bft) 98,50 %
03.07.2019 22:00 17,0 C 15,4 C 15,3 C 62 % 1024,9 hPa 0,0 l/m 0,00 h 0,00 h 0 W/m 7,4 km/h (2 Bft) 97,31 %
03.07.2019 23:00 16,0 C 14,5 C 14,4 C 65 % 1025,4 hPa 0,0 l/m 0,00 h 0,00 h 0 W/m 5,4 km/h (1 Bft) 96,52 %
04.07.2019 00:00 15,1 C 13,8 C 13,6 C 69 % 1025,7 hPa 0,0 l/m 0,00 h 0,00 h 0 W/m 6,6 km/h (2 Bft) 98,30 %
04.07.2019 01:00 14,3 C 12,7 C 12,6 C 71 % 1025,6 hPa 0,0 l/m 0,00 h 0,00 h 0 W/m 5,3 km/h (1 Bft) 96,51 %
04.07.2019 02:00 13,3 C 11,5 C 11,5 C 73 % 1025,7 hPa 0,0 l/m 0,00 h 0,00 h 0 W/m 1,8 km/h (1 Bft) 99,36 %
04.07.2019 03:00 12,4 C 10,6 C 10,6 C 75 % 1025,6 hPa 0,0 l/m 0,00 h 0,00 h 0 W/m 1,6 km/h (1 Bft) 95,66 %
04.07.2019 04:00 11,7 C 10,2 C 10,1 C 79 % 1025,3 hPa 0,0 l/m 0,00 h 0,00 h 0 W/m 2,2 km/h (1 Bft) 97,00 %
04.07.2019 05:00 11,0 C 9,6 C 9,4 C 81 % 1025,3 hPa 0,0 l/m 0,00 h 0,00 h 8 W/m 1,0 km/h (0 Bft) 97,95 %
04.07.2019 06:00 10,7 C 10,2 C 9,7 C 84 % 1025,4 hPa 0,0 l/m 0,00 h 0,00 h 19 W/m 2,0 km/h (1 Bft) 99,49 %
04.07.2019 07:00 11,5 C 11,9 C 11,4 C 86 % 1025,6 hPa 0,0 l/m 0,00 h 0,00 h 37 W/m 4,9 km/h (1 Bft) 94,51 %
04.07.2019 08:00 14,3 C 19,7 C 17,3 C 79 % 1025,7 hPa 0,0 l/m 0,00 h 0,00 h 57 W/m 6,6 km/h (2 Bft) 98,63 %
04.07.2019 09:00 17,9 C 24,0 C 25,7 C 67 % 1025,8 hPa 0,0 l/m 0,78 h 0,00 h 469 W/m 7,5 km/h (2 Bft) 98,91 %
04.07.2019 10:00 20,3 C 27,2 C 29,2 C 56 % 1025,7 hPa 0,0 l/m 1,05 h 0,00 h 716 W/m 8,7 km/h (2 Bft) 99,80 %
04.07.2019 11:00 21,8 C 28,6 C 30,4 C 51 % 1025,4 hPa 0,0 l/m 1,00 h 0,00 h 837 W/m 8,7 km/h (2 Bft) 98,71 %
04.07.2019 12:00 22,9 C 29,4 C 31,7 C 46 % 1024,8 hPa 0,0 l/m 1,00 h 0,00 h 922 W/m 9,7 km/h (2 Bft) 96,47 %
04.07.2019 13:00 23,8 C 29,7 C 33,0 C 45 % 1024,2 hPa 0,0 l/m 1,00 h 0,00 h 950 W/m 7,8 km/h (2 Bft) 97,07 %
04.07.2019 14:00 25,2 C 29,3 C 32,5 C 42 % 1023,5 hPa 0,0 l/m 1,00 h 0,00 h 939 W/m 9,0 km/h (2 Bft) 97,28 %
04.07.2019 15:00 25,5 C 27,5 C 25,7 C 41 % 1022,8 hPa 0,0 l/m 1,00 h 0,00 h 811 W/m 9,9 km/h (2 Bft) 98,53 %
04.07.2019 16:00 25,2 C 25,0 C 25,7 C 39 % 1022,2 hPa 0,0 l/m 1,00 h 0,00 h 742 W/m 8,7 km/h (2 Bft) 97,51 %
04.07.2019 17:00 26,6 C 26,1 C 25,8 C 40 % 1021,5 hPa 0,0 l/m 1,00 h 0,00 h 576 W/m 7,7 km/h (2 Bft) 96,37 %
04.07.2019 18:00 26,5 C 25,3 C 25,1 C 43 % 1020,9 hPa 0,0 l/m 1,00 h 0,00 h 433 W/m 7,9 km/h (2 Bft) 98,82 %
04.07.2019 19:00 25,0 C 23,5 C 22,7 C 45 % 1020,4 hPa 0,0 l/m 0,53 h 0,00 h 178 W/m 7,2 km/h (2 Bft) 96,58 %
04.07.2019 20:00 23,2 C 21,3 C 21,0 C 51 % 1020,1 hPa 0,0 l/m 0,00 h 0,00 h 60 W/m 4,7 km/h (1 Bft) 97,59 %
04.07.2019 21:00 21,4 C 18,9 C 18,5 C 55 % 1019,9 hPa 0,0 l/m 0,00 h 0,00 h 16 W/m 0,7 km/h (0 Bft) 98,51 %
04.07.2019 22:00 19,7 C 17,1 C 16,5 C 59 % 1020,0 hPa 0,0 l/m 0,00 h 0,00 h 0 W/m 0,0 km/h (0 Bft) 96,08 %
04.07.2019 23:00 18,2 C 15,8 C 15,2 C 63 % 1020,0 hPa 0,0 l/m 0,00 h 0,00 h 0 W/m 0,6 km/h (0 Bft) 99,22 %
05.07.2019 00:00 17,2 C 15,7 C 15,6 C 67 % 1019,8 hPa 0,0 l/m 0,00 h 0,00 h 0 W/m 0,9 km/h (0 Bft) 96,02 %
05.07.2019 01:00 16,9 C 15,7 C 15,2 C 70 % 1019,6 hPa 0,0 l/m 0,00 h 0,00 h 0 W/m 0,9 km/h (0 Bft) 97,36 %
05.07.2019 02:00 16,5 C 15,2 C 15,0 C 72 % 1019,2 hPa 0,0 l/m 0,00 h 0,00 h 0 W/m 0,4 km/h (0 Bft) 97,93 %
05.07.2019 03:00 16,3 C 14,9 C 14,8 C 76 % 1019,1 hPa 0,0 l/m 0,00 h 0,00 h 0 W/m 1,2 km/h (1 Bft) 99,21 %
05.07.2019 04:00 16,0 C 15,0 C 14,7 C 79 % 1018,8 hPa 0,0 l/m 0,00 h 0,00 h 0 W/m 1,1 km/h (0 Bft) 95,26 %
05.07.2019 05:00 16,1 C 15,5 C 15,3 C 82 % 1018,5 hPa 0,0 l/m 0,00 h 0,00 h 10 W/m 2,1 km/h (1 Bft) 98,15 %
05.07.2019 06:00 16,5 C 16,5 C 16,4 C 83 % 1018,5 hPa 0,0 l/m 0,37 h 0,00 h 56 W/m 5,1 km/h (1 Bft) 99,55 %
05.07.2019 07:00 17,1 C 17,2 C 16,9 C 80 % 1018,5 hPa 0,0 l/m 0,00 h 0,00 h 84 W/m 4,4 km/h (1 Bft) 95,88 %
05.07.2019 08:00 18,1 C 18,8 C 18,3 C 74 % 1018,5 hPa 0,0 l/m 0,00 h 0,00 h 142 W/m 7,0 km/h (2 Bft) 97,22 %
05.07.2019 09:00 19,2 C 19,9 C 19,2 C 69 % 1018,6 hPa 0,0 l/m 0,00 h 0,00 h 191 W/m 7,5 km/h (2 Bft) 98,56 %
05.07.2019 10:00 20,5 C 23,1 C 22,2 C 67 % 1018,6 hPa 0,0 l/m 0,57 h 0,00 h 373 W/m 9,5 km/h (2 Bft) 98,16 %
05.07.2019 11:00 22,8 C 27,2 C 26,0 C 64 % 1018,4 hPa 0,0 l/m 1,00 h 0,00 h 557 W/m 9,7 km/h (2 Bft) 96,38 %
05.07.2019 12:00 25,0 C 29,4 C 29,2 C 58 % 1018,0 hPa 0,0 l/m 1,00 h 0,00 h 677 W/m 11,6 km/h (2 Bft) 97,20 %
05.07.2019 13:00 26,3 C 28,8 C 28,6 C 56 % 1017,6 hPa 0,0 l/m 0,60 h 0,00 h 483 W/m 11,2 km/h (2 Bft) 99,01 %
05.07.2019 14:00 26,4 C 28,7 C 28,2 C 55 % 1017,3 hPa 0,0 l/m 0,67 h 0,00 h 525 W/m 11,7 km/h (2 Bft) 94,93 %
05.07.2019 15:00 27,9 C 30,4 C 28,2 C 51 % 1016,9 hPa 0,0 l/m 0,93 h 0,00 h 775 W/m 14,7 km/h (3 Bft) 97,86 %
05.07.2019 16:00 29,1 C 29,3 C 28,7 C 48 % 1016,1 hPa 0,0 l/m 0,90 h 0,00 h 717 W/m 12,3 km/h (3 Bft) 99,65 %
05.07.2019 17:00 28,9 C 28,0 C 27,9 C 47 % 1015,9 hPa 0,0 l/m 0,83 h 0,00 h 549 W/m 13,1 km/h (3 Bft) 95,18 %
05.07.2019 18:00 28,5 C 27,7 C 27,4 C 46 % 1015,3 hPa 0,0 l/m 0,93 h 0,00 h 438 W/m 11,1 km/h (2 Bft) 97,94 %
05.07.2019 19:00 27,4 C 25,9 C 24,1 C 49 % 1014,9 hPa 0,0 l/m 0,73 h 0,00 h 215 W/m 9,9 km/h (2 Bft) 99,36 %
05.07.2019 20:00 24,8 C 23,0 C 22,1 C 54 % 1014,7 hPa 0,0 l/m 0,00 h 0,00 h 38 W/m 10,4 km/h (2 Bft) 95,66 %
05.07.2019 21:00 22,7 C 20,4 C 19,8 C 57 % 1014,9 hPa 0,0 l/m 0,00 h 0,00 h 11 W/m 5,5 km/h (1 Bft) 97,51 %
05.07.2019 22:00 20,9 C 18,3 C 17,7 C 58 % 1015,0 hPa 0,0 l/m 0,00 h 0,00 h 0 W/m 2,2 km/h (1 Bft) 97,51 %
05.07.2019 23:00 19,2 C 16,7 C 15,6 C 60 % 1015,0 hPa 0,0 l/m 0,00 h 0,00 h 0 W/m 0,7 km/h (0 Bft) 96,80 %
06.07.2019 00:00 17,7 C 15,3 C 14,8 C 66 % 1014,8 hPa 0,0 l/m 0,00 h 0,00 h 0 W/m 1,9 km/h (1 Bft) 99,78 %
06.07.2019 01:00 16,6 C 14,7 C 14,3 C 73 % 1014,7 hPa 0,0 l/m 0,00 h 0,00 h 0 W/m 1,1 km/h (0 Bft) 95,80 %
06.07.2019 02:00 15,8 C 14,1 C 13,9 C 77 % 1014,3 hPa 0,0 l/m 0,00 h 0,00 h 0 W/m 0,5 km/h (0 Bft) 96,79 %
06.07.2019 03:00 15,2 C 13,5 C 13,2 C 80 % 1013,6 hPa 0,0 l/m 0,00 h 0,00 h 0 W/m 0,5 km/h (0 Bft) 98,29 %
06.07.2019 04:00 14,7 C 13,1 C 12,8 C 82 % 1013,3 hPa 0,0 l/m 0,00 h 0,00 h 0 W/m 0,6 km/h (0 Bft) 99,57 %
06.07.2019 05:00 14,3 C 13,1 C 12,5 C 85 % 1012,9 hPa 0,0 l/m 0,00 h 0,00 h 10 W/m 0,6 km/h (0 Bft) 95,51 %
06.07.2019 06:00 14,2 C 13,9 C 12,9 C 87 % 1012,5 hPa 0,0 l/m 0,00 h 0,00 h 25 W/m 0,8 km/h (0 Bft) 97,27 %
06.07.2019 07:00 15,1 C 16,7 C 15,7 C 87 % 1012,0 hPa 0,0 l/m 0,00 h 0,00 h 70 W/m 2,7 km/h (1 Bft) 98,72 %
06.07.2019 08:00 18,2 C 22,6 C 20,7 C 76 % 1011,8 hPa 0,0 l/m 0,00 h 0,00 h 115 W/m 9,2 km/h (2 Bft) 95,95 %
06.07.2019 09:00 21,5 C 25,5 C 25,2 C 64 % 1011,6 hPa 0,0 l/m 0,60 h 0,00 h 400 W/m 11,7 km/h (2 Bft) 97,72 %
06.07.2019 10:00 23,5 C 26,8 C 26,6 C 58 % 1011,4 hPa 0,0 l/m 0,70 h 0,00 h 521 W/m 13,9 km/h (3 Bft) 97,58 %
06.07.2019 11:00 25,2 C 30,3 C 30,1 C 55 % 1011,1 hPa 0,0 l/m 1,00 h 0,00 h 766 W/m 14,3 km/h (3 Bft) 98,72 %
06.07.2019 12:00 27,6 C 32,9 C 33,3 C 51 % 1010,7 hPa 0,0 l/m 1,00 h 0,00 h 958 W/m 15,3 km/h (3 Bft) 95,65 %
06.07.2019 13:00 28,8 C 32,1 C 33,1 C 49 % 1010,3 hPa 0,0 l/m 0,90 h 0,00 h 796 W/m 17,2 km/h (3 Bft) 98,43 %
06.07.2019 14:00 27,8 C 28,6 C 28,9 C 51 % 1010,1 hPa 0,0 l/m 0,40 h 0,00 h 420 W/m 14,3 km/h (3 Bft) 98,50 %
06.07.2019 15:00 27,6 C 29,1 C 27,9 C 52 % 1009,8 hPa 0,0 l/m 0,57 h 0,00 h 518 W/m 12,6 km/h (3 Bft) 95,16 %
06.07.2019 16:00 28,1 C 28,3 C 27,9 C 50 % 1009,7 hPa 0,0 l/m 0,70 h 0,00 h 522 W/m 13,0 km/h (3 Bft) 98,65 %
06.07.2019 17:00 27,7 C 27,2 C 26,9 C 54 % 1009,7 hPa 0,0 l/m 0,67 h 0,00 h 371 W/m 14,2 km/h (3 Bft) 98,29 %
06.07.2019 18:00 24,8 C 23,9 C 23,9 C 63 % 1010,1 hPa 0,0 l/m 0,27 h 0,00 h 214 W/m 15,5 km/h (3 Bft) 95,87 %
06.07.2019 19:00 22,3 C 21,3 C 21,5 C 68 % 1010,9 hPa 0,0 l/m 0,30 h 0,00 h 145 W/m 14,4 km/h (3 Bft) 98,29 %
06.07.2019 20:00 19,4 C 17,7 C 18,2 C 78 % 1011,9 hPa 0,0 l/m 0,00 h 0,07 h 33 W/m 12,8 km/h (3 Bft) 98,15 %
06.07.2019 21:00 17,1 C 15,0 C 15,5 C 86 % 1012,1 hPa 0,0 l/m 0,00 h 0,17 h 9 W/m 7,0 km/h (2 Bft) 97,08 %
06.07.2019 22:00 16,4 C 14,4 C 14,6 C 91 % 1012,5 hPa 0,4 l/m 0,00 h 0,67 h 0 W/m 3,7 km/h (1 Bft) 98,29 %
06.07.2019 23:00 16,0 C 14,1 C 14,1 C 93 % 1012,7 hPa 0,2 l/m 0,00 h 0,30 h 0 W/m 1,1 km/h (0 Bft) 96,02 %
07.07.2019 00:00 15,6 C 14,0 C 14,1 C 94 % 1012,9 hPa 0,0 l/m 0,00 h 0,00 h 0 W/m 1,7 km/h (1 Bft) 97,38 %
07.07.2019 01:00 15,2 C 13,9 C 13,9 C 94 % 1013,1 hPa 0,0 l/m 0,00 h 0,00 h 0 W/m 3,0 km/h (1 Bft) 99,36 %
07.07.2019 02:00 14,8 C 13,4 C 13,4 C 94 % 1013,0 hPa 0,0 l/m 0,00 h 0,03 h 0 W/m 4,2 km/h (1 Bft) 95,37 %
07.07.2019 03:00 14,3 C 12,8 C 12,8 C 94 % 1013,0 hPa 0,0 l/m 0,00 h 0,00 h 0 W/m 3,1 km/h (1 Bft) 96,37 %
07.07.2019 04:00 13,7 C 11,9 C 12,2 C 92 % 1013,1 hPa 0,0 l/m 0,00 h 0,00 h 0 W/m 2,0 km/h (1 Bft) 99,19 %
07.07.2019 05:00 13,1 C 11,7 C 11,7 C 92 % 1013,1 hPa 0,0 l/m 0,00 h 0,00 h 8 W/m 0,5 km/h (0 Bft) 96,58 %
07.07.2019 06:00 12,7 C 11,7 C 11,9 C 93 % 1013,6 hPa 0,0 l/m 0,00 h 0,00 h 33 W/m 0,4 km/h (0 Bft) 97,83 %
07.07.2019 07:00 13,0 C 13,3 C 13,2 C 94 % 1014,0 hPa 0,0 l/m 0,00 h 0,00 h 74 W/m 2,7 km/h (1 Bft) 97,15 %
07.07.2019 08:00 14,1 C 17,8 C 16,7 C 91 % 1014,3 hPa 0,0 l/m 0,00 h 0,00 h 128 W/m 5,7 km/h (1 Bft) 97,01 %
07.07.2019 09:00 17,3 C 23,6 C 24,3 C 75 % 1014,4 hPa 0,0 l/m 0,70 h 0,00 h 434 W/m 8,0 km/h (2 Bft) 99,15 %
07.07.2019 10:00 19,5 C 25,1 C 25,4 C 63 % 1014,7 hPa 0,0 l/m 0,73 h 0,00 h 579 W/m 10,2 km/h (2 Bft) 97,65 %
07.07.2019 11:00 19,0 C 20,7 C 20,3 C 63 % 1014,9 hPa 0,0 l/m 0,17 h 0,00 h 339 W/m 8,7 km/h (2 Bft) 98,34 %
07.07.2019 12:00 19,4 C 21,1 C 20,8 C 63 % 1015,2 hPa 0,0 l/m 0,17 h 0,00 h 314 W/m 10,4 km/h (2 Bft) 97,28 %
07.07.2019 13:00 20,3 C 24,9 C 24,9 C 63 % 1015,3 hPa 0,0 l/m 0,73 h 0,00 h 586 W/m 10,6 km/h (2 Bft) 95,16 %
07.07.2019 14:00 21,3 C 24,1 C 24,0 C 57 % 1015,3 hPa 0,0 l/m 0,43 h 0,00 h 495 W/m 10,0 km/h (2 Bft) 99,50 %
07.07.2019 15:00 21,5 C 23,2 C 21,9 C 56 % 1015,4 hPa 0,0 l/m 0,40 h 0,00 h 497 W/m 10,6 km/h (2 Bft) 98,44 %
07.07.2019 16:00 21,7 C 22,4 C 22,4 C 55 % 1015,4 hPa 0,0 l/m 0,63 h 0,00 h 539 W/m 12,6 km/h (3 Bft) 94,94 %
07.07.2019 17:00 22,2 C 22,3 C 22,2 C 54 % 1015,3 hPa 0,0 l/m 0,73 h 0,00 h 518 W/m 12,5 km/h (3 Bft) 98,86 %
07.07.2019 18:00 21,5 C 20,6 C 20,6 C 53 % 1015,5 hPa 0,0 l/m 0,57 h 0,00 h 294 W/m 11,4 km/h (2 Bft) 97,53 %
07.07.2019 19:00 19,5 C 18,5 C 18,4 C 56 % 1015,7 hPa 0,0 l/m 0,13 h 0,00 h 128 W/m 11,0 km/h (2 Bft) 96,51 %
07.07.2019 20:00 18,3 C 17,2 C 17,2 C 58 % 1016,0 hPa 0,0 l/m 0,00 h 0,00 h 55 W/m 7,9 km/h (2 Bft) 98,16 %
07.07.2019 21:00 17,1 C 15,6 C 15,7 C 62 % 1016,5 hPa 0,0 l/m 0,00 h 0,00 h 18 W/m 7,9 km/h (2 Bft) 97,86 %
07.07.2019 22:00 15,6 C 13,6 C 13,7 C 68 % 1017,1 hPa 0,0 l/m 0,00 h 0,00 h 0 W/m 4,2 km/h (1 Bft) 97,01 %
07.07.2019 23:00 14,2 C 12,0 C 12,0 C 72 % 1017,5 hPa 0,0 l/m 0,00 h 0,00 h 0 W/m 2,0 km/h (1 Bft) 97,72 %
Min-Datum _ 04.07.19 04.07.19 04.07.19 04.07.19 06.07.19 - - - - 01.07.19 01.07.19
_ Min-Zeit 06:24 05:08 04:52 16:32 17:30 - - - - 00:14 00:02
Minimum _ 10,6 C 9,4 C 9,4 C 37 % 1009,5 hPa - - - - 0,0 km/h (0 Bft) 11,76 %
Max-Datum _ 05.07.19 06.07.19 06.07.19 07.07.19 04.07.19 06.07.19 04.07.19 06.07.19 06.07.19 05.07.19 01.07.19
_ Max-Zeit 16:36 12:02 13:02 01:36 09:08 22:38 09:45 20:52 13:04 17:48 00:16
Maximum _ 29,5 C 35,0 C 36,1 C 95 % 1025,9 hPa 0,4 l/m 0,08 h 0,03 h 1191 W/m 35,4 km/h
W-NW (5 Bft)
100,00 %
Durchschnitt _ 19,8 C 20,3 C 20,1 C 66 % 1018,8 hPa #0,6 l/m #55:54 h #1:14 h 376 W/m 7,2 km/h (2 Bft) 97,49 %
© 2019 W. Hausmann